createdAt,value
2022-10-10T00:01:20.937Z,66.93
2022-10-10T00:04:08.589Z,66.98
2022-10-10T00:06:56.417Z,67.21
2022-10-10T00:09:44.334Z,66.96
2022-10-10T00:12:32.047Z,67.02
2022-10-10T00:15:19.954Z,66.87
2022-10-10T00:18:07.923Z,67.01
2022-10-10T00:20:55.946Z,66.83
2022-10-10T00:23:44.039Z,66.92
2022-10-10T00:26:31.921Z,66.85
2022-10-10T00:29:19.763Z,66.80
2022-10-10T00:32:07.628Z,66.85
2022-10-10T00:34:55.445Z,67.19
2022-10-10T00:37:43.249Z,66.99
2022-10-10T00:45:28.819Z,66.93
2022-10-10T00:48:22.976Z,66.91
2022-10-10T00:51:17.946Z,66.81
2022-10-10T00:54:10.057Z,66.77
2022-10-10T00:57:04.736Z,66.67
2022-10-10T00:59:53.731Z,66.76
2022-10-10T01:02:41.954Z,66.71
2022-10-10T01:05:30.371Z,66.68
2022-10-10T01:08:19.726Z,66.63
2022-10-10T01:11:32.461Z,66.64
2022-10-10T01:14:35.823Z,66.82
2022-10-10T01:17:41.991Z,66.80
2022-10-10T01:20:51.348Z,66.66
2022-10-10T01:23:54.521Z,66.58
2022-10-10T01:27:08.134Z,66.54
2022-10-10T01:30:09.498Z,66.55
2022-10-10T01:32:57.015Z,66.49
2022-10-10T01:35:47.655Z,66.43
2022-10-10T01:38:54.871Z,66.47
2022-10-10T01:42:04.940Z,66.42
2022-10-10T01:44:54.268Z,66.45
2022-10-10T01:47:41.905Z,66.45
2022-10-10T01:50:38.714Z,66.44
2022-10-10T01:53:31.992Z,66.34
2022-10-10T01:56:19.742Z,66.12
2022-10-10T02:00:02.091Z,66.08
2022-10-10T02:03:10.337Z,66.19
2022-10-10T02:06:10.086Z,65.82
2022-10-10T02:09:07.303Z,65.88
2022-10-10T02:11:56.587Z,65.79
2022-10-10T02:14:48.477Z,65.79
2022-10-10T02:17:39.522Z,65.73
2022-10-10T02:20:30.579Z,65.84
2022-10-10T02:23:21.556Z,65.71
2022-10-10T02:26:12.959Z,65.77
2022-10-10T02:29:16.588Z,65.98
2022-10-10T02:32:16.775Z,65.94
2022-10-10T02:35:09.494Z,65.78
2022-10-10T02:38:00.299Z,65.90
2022-10-10T02:40:50.242Z,65.56
2022-10-10T02:43:38.701Z,65.69
2022-10-10T02:46:26.379Z,65.45
2022-10-10T02:49:14.375Z,65.65
2022-10-10T02:52:02.606Z,65.75
2022-10-10T02:54:50.318Z,65.48
2022-10-10T02:57:38.163Z,65.62
2022-10-10T03:00:26.560Z,65.45
2022-10-10T03:03:14.233Z,65.38
2022-10-10T03:06:02.869Z,65.22
2022-10-10T03:08:50.487Z,65.15
2022-10-10T03:11:38.054Z,65.24
2022-10-10T03:14:25.918Z,65.24
2022-10-10T03:17:13.940Z,65.01
2022-10-10T03:20:01.940Z,65.05
2022-10-10T03:22:51.781Z,65.06
2022-10-10T03:25:43.766Z,65.08
2022-10-10T03:28:31.894Z,64.98
2022-10-10T03:31:19.510Z,65.10
2022-10-10T03:34:07.464Z,65.06
2022-10-10T03:36:55.135Z,65.20
2022-10-10T03:39:43.265Z,65.20
2022-10-10T03:42:30.905Z,65.14
2022-10-10T03:45:19.142Z,65.08
2022-10-10T03:48:06.912Z,65.26
2022-10-10T03:50:54.703Z,65.03
2022-10-10T03:53:44.222Z,65.27
2022-10-10T03:56:31.891Z,65.09
2022-10-10T03:59:19.806Z,65.05
2022-10-10T04:02:07.824Z,65.23
2022-10-10T04:04:55.473Z,65.09
2022-10-10T04:07:43.569Z,65.14
2022-10-10T04:10:31.648Z,65.18
2022-10-10T04:13:20.801Z,65.27
2022-10-10T04:16:08.842Z,65.29
2022-10-10T04:18:56.528Z,65.33
2022-10-10T04:21:45.020Z,65.22
2022-10-10T04:24:33.340Z,65.20
2022-10-10T04:27:21.159Z,65.20
2022-10-10T04:30:09.879Z,65.18
2022-10-10T04:32:57.903Z,64.74
2022-10-10T04:35:48.536Z,64.88
2022-10-10T04:38:36.398Z,64.66
2022-10-10T04:41:24.344Z,64.55
2022-10-10T04:44:12.029Z,64.57
2022-10-10T04:46:59.899Z,64.62
2022-10-10T04:49:47.971Z,64.42
2022-10-10T04:52:36.133Z,64.48
2022-10-10T04:55:24.345Z,64.22
2022-10-10T04:58:12.583Z,64.15
2022-10-10T05:01:00.833Z,63.93
2022-10-10T05:03:48.479Z,63.84
2022-10-10T05:06:36.617Z,63.72
2022-10-10T05:09:24.548Z,63.77
2022-10-10T05:12:12.211Z,63.70
2022-10-10T05:15:00.188Z,63.89
2022-10-10T05:17:47.867Z,63.66
2022-10-10T05:20:37.217Z,63.90
2022-10-10T05:23:24.899Z,63.93
2022-10-10T05:26:12.879Z,63.68
2022-10-10T05:29:01.944Z,63.88
2022-10-10T05:31:49.755Z,63.97
2022-10-10T05:34:38.020Z,63.95
2022-10-10T05:37:25.687Z,63.94
2022-10-10T05:40:13.632Z,63.67
2022-10-10T05:43:01.771Z,64.02
2022-10-10T05:45:49.466Z,64.10
2022-10-10T05:48:37.341Z,64.01
2022-10-10T05:51:25.495Z,63.87
2022-10-10T05:54:13.173Z,63.41
2022-10-10T05:57:01.316Z,63.54
2022-10-10T05:59:48.942Z,63.65
2022-10-10T06:02:36.792Z,63.92
2022-10-10T06:05:25.426Z,63.97
2022-10-10T06:08:13.021Z,63.93
2022-10-10T06:11:04.807Z,64.02
2022-10-10T06:13:54.425Z,63.89
2022-10-10T06:16:45.491Z,63.98
2022-10-10T06:19:33.184Z,63.72
2022-10-10T06:22:21.517Z,63.72
2022-10-10T06:25:23.989Z,63.52
2022-10-10T06:28:17.513Z,63.55
2022-10-10T06:31:08.462Z,63.46
2022-10-10T06:33:56.212Z,63.37
2022-10-10T06:36:44.059Z,63.38
2022-10-10T06:39:32.058Z,63.45
2022-10-10T06:42:20.167Z,63.62
2022-10-10T06:45:14.080Z,63.68
2022-10-10T06:48:02.170Z,63.63
2022-10-10T06:51:03.996Z,63.25
2022-10-10T06:53:52.175Z,63.45
2022-10-10T06:56:39.743Z,63.35
2022-10-10T06:59:27.965Z,63.21
2022-10-10T07:02:15.679Z,63.15
2022-10-10T07:05:03.714Z,63.06
2022-10-10T07:07:52.575Z,62.96
2022-10-10T07:10:40.222Z,62.80
2022-10-10T07:13:28.605Z,62.49
2022-10-10T07:16:16.191Z,62.32
2022-10-10T07:19:05.139Z,62.34
2022-10-10T07:21:53.255Z,62.41
2022-10-10T07:24:41.387Z,62.33
2022-10-10T07:27:29.282Z,62.02
2022-10-10T07:30:17.394Z,61.78
2022-10-10T07:33:10.630Z,61.83
2022-10-10T07:35:58.505Z,61.58
2022-10-10T07:38:51.917Z,61.47
2022-10-10T07:41:39.783Z,61.30
2022-10-10T07:44:31.202Z,61.23
2022-10-10T07:47:21.832Z,61.10
2022-10-10T07:50:11.856Z,60.99
2022-10-10T07:53:00.222Z,60.94
2022-10-10T07:55:48.159Z,61.05
2022-10-10T07:58:36.773Z,60.57
2022-10-10T08:01:25.017Z,60.64
2022-10-10T08:04:13.111Z,60.35
2022-10-10T08:07:01.025Z,60.08
2022-10-10T08:09:48.912Z,59.98
2022-10-10T08:12:36.925Z,59.87
2022-10-10T08:15:26.091Z,59.65
2022-10-10T08:18:16.073Z,59.77
2022-10-10T08:21:06.690Z,59.78
2022-10-10T08:23:55.734Z,59.63
2022-10-10T08:26:43.356Z,59.76
2022-10-10T08:29:33.255Z,59.72
2022-10-10T08:32:21.143Z,59.57
2022-10-10T08:35:09.263Z,59.26
2022-10-10T08:37:57.077Z,59.27
2022-10-10T08:40:50.722Z,58.91
2022-10-10T08:43:47.635Z,58.34
2022-10-10T08:46:44.782Z,58.00
2022-10-10T08:49:37.661Z,58.17
2022-10-10T08:52:33.234Z,58.06
2022-10-10T08:55:31.263Z,57.83
2022-10-10T08:58:21.042Z,57.68
2022-10-10T09:01:28.673Z,57.61
2022-10-10T09:04:19.840Z,57.56
2022-10-10T09:07:41.331Z,57.41
2022-10-10T09:10:57.368Z,57.13
2022-10-10T09:14:03.952Z,57.13
2022-10-10T09:17:17.329Z,56.72
2022-10-10T09:20:18.807Z,56.53
2022-10-10T09:23:28.669Z,56.39
2022-10-10T09:26:22.092Z,55.91
2022-10-10T09:29:25.885Z,55.65
2022-10-10T09:32:24.778Z,55.36
2022-10-10T09:35:34.792Z,54.22
2022-10-10T09:38:34.616Z,53.54
2022-10-10T09:41:59.652Z,53.53
2022-10-10T09:44:47.560Z,53.40
2022-10-10T09:47:35.810Z,53.15
2022-10-10T09:50:27.624Z,52.71
2022-10-10T09:53:17.309Z,52.40
2022-10-10T09:56:06.027Z,52.46
2022-10-10T09:58:56.060Z,52.06
2022-10-10T10:02:02.017Z,51.96
2022-10-10T10:04:51.238Z,52.10
2022-10-10T10:07:48.424Z,51.60
2022-10-10T10:10:38.172Z,51.51
2022-10-10T10:13:33.047Z,50.88
2022-10-10T10:16:29.511Z,50.92
2022-10-10T10:19:34.150Z,51.26
2022-10-10T10:22:46.947Z,51.35
2022-10-10T10:25:37.853Z,51.47
2022-10-10T10:28:26.069Z,51.40
2022-10-10T10:31:52.160Z,51.34
2022-10-10T10:34:54.048Z,51.23
2022-10-10T10:37:50.637Z,50.83
2022-10-10T10:41:01.306Z,50.79
2022-10-10T10:44:04.022Z,50.84
2022-10-10T10:47:18.627Z,50.98
2022-10-10T10:50:50.625Z,51.00
2022-10-10T10:53:51.542Z,51.12
2022-10-10T10:56:53.023Z,50.91
2022-10-10T11:00:22.050Z,51.15
2022-10-10T11:05:20.168Z,51.31
2022-10-10T11:07:20.295Z,51.46
2022-10-10T11:10:27.655Z,51.61
2022-10-10T11:13:24.399Z,51.79
2022-10-10T11:16:36.683Z,51.92
2022-10-10T11:19:38.312Z,52.09
2022-10-10T11:22:31.962Z,51.92
2022-10-10T11:25:26.139Z,52.15
2022-10-10T11:28:29.470Z,52.10
2022-10-10T11:31:42.688Z,52.36
2022-10-10T11:34:33.633Z,52.33
2022-10-10T11:37:27.750Z,52.23
2022-10-10T11:40:32.507Z,52.10
2022-10-10T11:43:35.409Z,52.53
2022-10-10T11:46:47.559Z,52.28
2022-10-10T11:50:07.262Z,52.56
2022-10-10T11:53:17.697Z,52.57
2022-10-10T11:56:12.398Z,52.65
2022-10-10T11:59:24.296Z,52.70
2022-10-10T12:02:25.703Z,52.50
2022-10-10T12:05:24.863Z,52.74
2022-10-10T12:08:22.428Z,52.72
2022-10-10T12:11:18.735Z,52.51
2022-10-10T12:14:10.189Z,52.28
2022-10-10T12:16:58.816Z,52.38
2022-10-10T12:19:48.849Z,52.41
2022-10-10T12:22:36.794Z,52.39
2022-10-10T12:25:37.060Z,52.17
2022-10-10T12:29:02.334Z,50.90
2022-10-10T12:32:30.358Z,49.85
2022-10-10T12:35:29.365Z,48.41
2022-10-10T12:38:21.043Z,48.14
2022-10-10T12:41:11.876Z,47.75
2022-10-10T12:44:22.361Z,47.48
2022-10-10T12:47:15.964Z,46.91
2022-10-10T12:50:21.973Z,46.26
2022-10-10T12:53:12.509Z,45.77
2022-10-10T12:56:02.622Z,45.14
2022-10-10T12:58:50.691Z,44.91
2022-10-10T13:01:46.679Z,44.94
2022-10-10T13:04:34.683Z,44.21
2022-10-10T13:07:24.956Z,44.11
2022-10-10T13:10:23.025Z,43.63
2022-10-10T13:13:13.979Z,43.19
2022-10-10T13:16:14.550Z,42.74
2022-10-10T13:19:02.552Z,42.81
2022-10-10T13:21:55.680Z,42.21
2022-10-10T13:24:44.336Z,42.22
2022-10-10T13:27:35.231Z,41.47
2022-10-10T13:30:25.211Z,41.31
2022-10-10T13:33:22.212Z,41.25
2022-10-10T13:36:20.946Z,41.30
2022-10-10T13:39:15.614Z,40.70
2022-10-10T13:42:06.359Z,40.87
2022-10-10T13:44:55.336Z,40.76
2022-10-10T13:47:49.677Z,40.81
2022-10-10T13:50:43.583Z,40.87
2022-10-10T13:53:44.260Z,40.83
2022-10-10T13:56:41.399Z,41.01
2022-10-10T13:59:30.266Z,42.67
2022-10-10T14:02:25.384Z,43.02
2022-10-10T14:05:26.215Z,42.68
2022-10-10T14:08:18.603Z,42.53
2022-10-10T14:11:08.659Z,43.73
2022-10-10T14:14:17.237Z,45.33
2022-10-10T14:17:05.941Z,45.67
2022-10-10T14:19:53.925Z,47.01
2022-10-10T14:22:41.824Z,48.51
2022-10-10T14:25:30.023Z,49.57
2022-10-10T14:28:25.331Z,50.38
2022-10-10T14:31:13.339Z,50.75
2022-10-10T14:34:01.240Z,51.15
2022-10-10T14:36:50.677Z,51.53
2022-10-10T14:39:38.310Z,51.84
2022-10-10T14:42:26.587Z,52.19
2022-10-10T14:45:16.579Z,52.46
2022-10-10T14:48:04.673Z,52.61
2022-10-10T14:50:52.560Z,52.81
2022-10-10T14:53:40.528Z,53.07
2022-10-10T14:57:09.185Z,53.51
2022-10-10T14:59:48.629Z,53.70
2022-10-10T15:02:42.006Z,53.72
2022-10-10T15:05:32.229Z,53.90
2022-10-10T15:08:20.318Z,54.13
2022-10-10T15:11:08.199Z,54.25
2022-10-10T15:13:57.341Z,54.38
2022-10-10T15:16:45.121Z,54.54
2022-10-10T15:19:33.037Z,54.96
2022-10-10T15:22:20.976Z,54.92
2022-10-10T15:25:09.870Z,55.20
2022-10-10T15:27:58.821Z,55.28
2022-10-10T15:30:46.942Z,55.51
2022-10-10T15:33:34.870Z,55.68
2022-10-10T15:36:23.117Z,55.58
2022-10-10T15:39:11.568Z,55.76
2022-10-10T15:42:08.000Z,55.82
2022-10-10T15:44:59.888Z,56.06
2022-10-10T15:47:47.606Z,56.11
2022-10-10T15:50:39.260Z,56.26
2022-10-10T15:53:29.047Z,56.40
2022-10-10T15:56:17.210Z,56.54
2022-10-10T15:59:05.636Z,56.78
2022-10-10T16:01:54.741Z,57.12
2022-10-10T16:04:42.978Z,57.02
2022-10-10T16:07:34.642Z,57.18
2022-10-10T16:10:26.403Z,57.19
2022-10-10T16:13:14.119Z,57.25
2022-10-10T16:16:04.357Z,57.38
2022-10-10T16:18:52.890Z,57.64
2022-10-10T16:21:40.976Z,57.69
2022-10-10T16:24:29.031Z,57.97
2022-10-10T16:27:16.795Z,58.01
2022-10-10T16:30:06.369Z,58.13
2022-10-10T16:32:54.054Z,57.98
2022-10-10T16:35:42.243Z,58.19
2022-10-10T16:38:29.880Z,58.38
2022-10-10T16:41:42.525Z,58.40
2022-10-10T16:44:26.367Z,58.65
2022-10-10T16:47:14.215Z,58.88
2022-10-10T16:50:02.643Z,58.84
2022-10-10T16:52:51.356Z,59.08
2022-10-10T16:55:40.693Z,58.95
2022-10-10T16:58:29.972Z,59.15
2022-10-10T17:01:20.870Z,59.11
2022-10-10T17:04:09.135Z,59.27
2022-10-10T17:06:57.019Z,59.49
2022-10-10T17:09:46.310Z,59.46
2022-10-10T17:12:34.078Z,59.44
2022-10-10T17:15:22.611Z,59.70
2022-10-10T17:18:10.477Z,59.69
2022-10-10T17:20:58.830Z,59.85
2022-10-10T17:23:47.415Z,59.86
2022-10-10T17:26:35.259Z,59.85
2022-10-10T17:29:23.732Z,60.11
2022-10-10T17:32:12.468Z,60.15
2022-10-10T17:35:00.403Z,60.18
2022-10-10T17:37:48.518Z,60.55
2022-10-10T17:40:39.509Z,60.46
2022-10-10T17:43:27.608Z,60.56
2022-10-10T17:46:40.104Z,60.79
2022-10-10T17:49:28.521Z,60.91
2022-10-10T17:52:20.928Z,60.95
2022-10-10T17:55:09.307Z,60.56
2022-10-10T17:57:59.252Z,60.63
2022-10-10T18:00:47.374Z,60.87
2022-10-10T18:03:35.563Z,60.91
2022-10-10T18:06:23.918Z,60.94
2022-10-10T18:09:12.152Z,61.18
2022-10-10T18:11:59.938Z,61.12
2022-10-10T18:14:48.350Z,61.16
2022-10-10T18:17:35.969Z,61.15
2022-10-10T18:20:24.396Z,61.19
2022-10-10T18:23:12.125Z,61.42
2022-10-10T18:26:11.431Z,61.50
2022-10-10T18:28:59.745Z,61.37
2022-10-10T18:31:47.506Z,61.45
2022-10-10T18:34:35.328Z,61.54
2022-10-10T18:37:23.250Z,61.78
2022-10-10T18:40:12.096Z,61.72
2022-10-10T18:42:59.899Z,61.76
2022-10-10T18:45:49.505Z,61.77
2022-10-10T18:48:38.641Z,61.71
2022-10-10T18:51:29.685Z,61.51
2022-10-10T18:54:18.401Z,61.77
2022-10-10T18:57:06.492Z,61.90
2022-10-10T18:59:55.172Z,62.12
2022-10-10T19:02:43.372Z,62.08
2022-10-10T19:05:30.936Z,62.38
2022-10-10T19:08:18.997Z,62.20
2022-10-10T19:11:08.185Z,62.29
2022-10-10T19:13:58.280Z,62.27
2022-10-10T19:16:47.877Z,62.51
2022-10-10T19:19:36.943Z,62.66
2022-10-10T19:22:25.097Z,62.77
2022-10-10T19:25:13.240Z,62.82
2022-10-10T19:28:01.120Z,63.19
2022-10-10T19:30:50.077Z,63.02
2022-10-10T19:33:38.003Z,63.16
2022-10-10T19:36:26.737Z,63.05
2022-10-10T19:39:14.626Z,63.53
2022-10-10T19:42:02.731Z,63.64
2022-10-10T19:44:52.339Z,63.61
2022-10-10T19:47:40.175Z,63.82
2022-10-10T19:50:27.999Z,63.83
2022-10-10T19:53:18.074Z,63.84
2022-10-10T19:56:20.503Z,63.93
2022-10-10T19:59:08.719Z,63.88
2022-10-10T20:01:56.381Z,64.18
2022-10-10T20:04:45.247Z,64.22
2022-10-10T20:07:32.899Z,64.29
2022-10-10T20:10:20.746Z,64.08
2022-10-10T20:13:12.642Z,64.36
2022-10-10T20:16:03.367Z,64.48
2022-10-10T20:18:51.704Z,64.49
2022-10-10T20:21:39.549Z,64.49
2022-10-10T20:24:27.547Z,64.56
2022-10-10T20:27:15.795Z,64.91
2022-10-10T20:30:04.547Z,64.76
2022-10-10T20:32:52.415Z,65.29
2022-10-10T20:35:39.997Z,65.32
2022-10-10T20:38:28.148Z,65.52
2022-10-10T20:41:16.045Z,65.64
2022-10-10T20:44:05.645Z,65.59
2022-10-10T20:46:53.506Z,65.45
2022-10-10T20:49:41.355Z,65.81
2022-10-10T20:52:28.930Z,65.76
2022-10-10T20:55:16.751Z,66.27
2022-10-10T20:58:04.538Z,66.17
2022-10-10T21:01:07.891Z,66.26
2022-10-10T21:03:55.905Z,66.22
2022-10-10T21:06:43.836Z,66.17
2022-10-10T21:09:32.811Z,66.26
2022-10-10T21:12:20.967Z,66.31
2022-10-10T21:15:09.279Z,66.42
2022-10-10T21:17:58.159Z,66.65
2022-10-10T21:20:45.722Z,66.75
2022-10-10T21:23:36.663Z,66.93
2022-10-10T21:26:26.511Z,66.80
2022-10-10T21:29:14.792Z,66.73
2022-10-10T21:32:02.717Z,66.97
2022-10-10T21:34:54.368Z,66.75
2022-10-10T21:37:45.527Z,67.16
2022-10-10T21:40:37.303Z,66.97
2022-10-10T21:43:24.886Z,67.21
2022-10-10T21:46:15.579Z,67.12
2022-10-10T21:49:06.839Z,67.05
2022-10-10T21:51:54.662Z,66.95
2022-10-10T21:54:42.458Z,67.22
2022-10-10T21:57:31.047Z,67.27
2022-10-10T22:00:19.574Z,67.20
2022-10-10T22:03:07.652Z,67.35
2022-10-10T22:05:55.223Z,67.67
2022-10-10T22:08:44.036Z,67.32
2022-10-10T22:11:32.896Z,67.58
2022-10-10T22:14:20.620Z,67.57
2022-10-10T22:17:08.437Z,67.67
2022-10-10T22:19:56.364Z,67.56
2022-10-10T22:22:45.701Z,67.86
2022-10-10T22:25:33.348Z,67.84
2022-10-10T22:28:21.592Z,67.85
2022-10-10T22:31:13.174Z,68.10
2022-10-10T22:34:01.207Z,68.09
2022-10-10T22:36:49.116Z,68.05
2022-10-10T22:39:37.798Z,68.22
2022-10-10T22:42:25.474Z,68.07
2022-10-10T22:45:13.255Z,68.13
2022-10-10T22:48:00.974Z,68.14
2022-10-10T22:50:57.985Z,68.26
2022-10-10T22:53:47.230Z,68.38
2022-10-10T22:56:35.296Z,68.41
2022-10-10T22:59:22.829Z,68.50
2022-10-10T23:02:10.912Z,68.67
2022-10-10T23:04:59.582Z,68.56
2022-10-10T23:07:47.648Z,68.75
2022-10-10T23:10:35.393Z,68.78
2022-10-10T23:13:23.374Z,68.71
2022-10-10T23:16:12.335Z,68.68
2022-10-10T23:18:59.896Z,69.01
2022-10-10T23:21:47.679Z,68.91
2022-10-10T23:24:37.630Z,68.90
2022-10-10T23:27:25.678Z,69.20
2022-10-10T23:30:13.619Z,69.18
2022-10-10T23:33:01.783Z,69.21
2022-10-10T23:36:03.864Z,69.27
2022-10-10T23:38:52.621Z,69.23
2022-10-10T23:41:40.744Z,69.32
2022-10-10T23:44:28.634Z,69.41
2022-10-10T23:47:16.723Z,69.45
2022-10-10T23:50:04.715Z,69.42
2022-10-10T23:52:52.522Z,69.48
2022-10-10T23:55:40.561Z,69.39
2022-10-10T23:58:28.749Z,69.62
